sensor_id;sensor_type;location;lat;lon;timestamp;P1;durP1;ratioP1;P2;durP2;ratioP2
78686;SDS011;68002;52.310;6.990;2023-06-01T00:02:14;8.03;;;3.23;;
78686;SDS011;68002;52.310;6.990;2023-06-01T00:04:39;9.77;;;3.33;;
78686;SDS011;68002;52.310;6.990;2023-06-01T00:07:05;8.57;;;3.30;;
78686;SDS011;68002;52.310;6.990;2023-06-01T00:09:31;9.27;;;3.05;;
78686;SDS011;68002;52.310;6.990;2023-06-01T00:11:56;6.70;;;2.90;;
78686;SDS011;68002;52.310;6.990;2023-06-01T00:14:21;7.43;;;3.30;;
78686;SDS011;68002;52.310;6.990;2023-06-01T00:16:46;8.03;;;3.13;;
78686;SDS011;68002;52.310;6.990;2023-06-01T00:19:12;7.57;;;2.90;;
78686;SDS011;68002;52.310;6.990;2023-06-01T00:21:37;8.20;;;3.57;;
78686;SDS011;68002;52.310;6.990;2023-06-01T00:24:02;8.00;;;3.53;;
78686;SDS011;68002;52.310;6.990;2023-06-01T00:26:28;6.88;;;3.35;;
78686;SDS011;68002;52.310;6.990;2023-06-01T00:28:53;10.10;;;3.78;;
78686;SDS011;68002;52.310;6.990;2023-06-01T00:31:18;6.73;;;3.00;;
78686;SDS011;68002;52.310;6.990;2023-06-01T00:33:43;8.40;;;2.83;;
78686;SDS011;68002;52.310;6.990;2023-06-01T00:36:09;8.07;;;3.53;;
78686;SDS011;68002;52.310;6.990;2023-06-01T00:38:34;11.23;;;4.17;;
78686;SDS011;68002;52.310;6.990;2023-06-01T00:41:00;8.63;;;3.07;;
78686;SDS011;68002;52.310;6.990;2023-06-01T00:43:25;8.38;;;3.08;;
78686;SDS011;68002;52.310;6.990;2023-06-01T00:45:50;6.57;;;3.00;;
78686;SDS011;68002;52.310;6.990;2023-06-01T00:48:16;10.60;;;3.37;;
78686;SDS011;68002;52.310;6.990;2023-06-01T00:50:42;8.05;;;3.17;;
78686;SDS011;68002;52.310;6.990;2023-06-01T00:53:09;6.32;;;2.78;;
78686;SDS011;68002;52.310;6.990;2023-06-01T00:55:40;8.52;;;3.10;;
78686;SDS011;68002;52.310;6.990;2023-06-01T00:58:06;10.13;;;4.15;;
78686;SDS011;68002;52.310;6.990;2023-06-01T01:00:31;13.13;;;4.75;;
78686;SDS011;68002;52.310;6.990;2023-06-01T01:02:57;6.43;;;2.77;;
78686;SDS011;68002;52.310;6.990;2023-06-01T01:05:22;7.17;;;2.97;;
78686;SDS011;68002;52.310;6.990;2023-06-01T01:08:03;13.65;;;4.38;;
78686;SDS011;68002;52.310;6.990;2023-06-01T01:10:33;8.38;;;3.40;;
78686;SDS011;68002;52.310;6.990;2023-06-01T01:15:43;11.23;;;3.88;;
78686;SDS011;68002;52.310;6.990;2023-06-01T01:18:36;14.43;;;3.80;;
78686;SDS011;68002;52.310;6.990;2023-06-01T01:21:04;11.35;;;3.80;;
78686;SDS011;68002;52.310;6.990;2023-06-01T01:29:26;7.03;;;3.78;;
78686;SDS011;68002;52.310;6.990;2023-06-01T01:31:53;13.00;;;4.65;;
78686;SDS011;68002;52.310;6.990;2023-06-01T01:34:20;11.95;;;4.20;;
78686;SDS011;68002;52.310;6.990;2023-06-01T01:36:46;7.68;;;3.40;;
78686;SDS011;68002;52.310;6.990;2023-06-01T01:39:12;9.35;;;3.60;;
78686;SDS011;68002;52.310;6.990;2023-06-01T01:41:37;10.97;;;4.33;;
78686;SDS011;68002;52.310;6.990;2023-06-01T01:44:03;9.53;;;4.20;;
78686;SDS011;68002;52.310;6.990;2023-06-01T01:46:30;12.18;;;4.38;;
78686;SDS011;68002;52.310;6.990;2023-06-01T01:51:44;9.20;;;3.80;;
78686;SDS011;68002;52.310;6.990;2023-06-01T01:54:21;9.95;;;3.83;;
78686;SDS011;68002;52.310;6.990;2023-06-01T01:56:49;10.25;;;4.53;;
78686;SDS011;68002;52.310;6.990;2023-06-01T01:59:16;9.98;;;4.15;;
78686;SDS011;68002;52.310;6.990;2023-06-01T02:01:42;10.07;;;4.20;;
78686;SDS011;68002;52.310;6.990;2023-06-01T02:04:08;12.70;;;4.68;;
78686;SDS011;68002;52.310;6.990;2023-06-01T02:06:33;8.68;;;3.92;;
78686;SDS011;68002;52.310;6.990;2023-06-01T02:08:59;8.87;;;3.83;;
78686;SDS011;68002;52.310;6.990;2023-06-01T02:11:25;9.82;;;3.72;;
78686;SDS011;68002;52.310;6.990;2023-06-01T02:13:50;9.63;;;4.17;;
78686;SDS011;68002;52.310;6.990;2023-06-01T02:16:15;11.60;;;3.80;;
78686;SDS011;68002;52.310;6.990;2023-06-01T02:18:42;10.93;;;3.93;;
78686;SDS011;68002;52.310;6.990;2023-06-01T02:21:08;11.38;;;4.85;;
78686;SDS011;68002;52.310;6.990;2023-06-01T02:23:34;8.07;;;4.50;;
78686;SDS011;68002;52.310;6.990;2023-06-01T02:25:59;11.20;;;3.53;;
78686;SDS011;68002;52.310;6.990;2023-06-01T02:28:24;12.37;;;5.40;;
78686;SDS011;68002;52.310;6.990;2023-06-01T02:30:49;13.03;;;4.07;;
78686;SDS011;68002;52.310;6.990;2023-06-01T02:33:14;11.43;;;5.03;;
78686;SDS011;68002;52.310;6.990;2023-06-01T02:35:40;12.17;;;4.17;;
78686;SDS011;68002;52.310;6.990;2023-06-01T02:38:05;8.73;;;3.77;;
78686;SDS011;68002;52.310;6.990;2023-06-01T02:40:30;6.10;;;2.83;;
78686;SDS011;68002;52.310;6.990;2023-06-01T02:42:55;11.67;;;4.47;;
78686;SDS011;68002;52.310;6.990;2023-06-01T02:45:21;10.27;;;4.00;;
78686;SDS011;68002;52.310;6.990;2023-06-01T02:47:46;10.13;;;3.63;;
78686;SDS011;68002;52.310;6.990;2023-06-01T02:50:11;13.20;;;4.10;;
78686;SDS011;68002;52.310;6.990;2023-06-01T02:52:36;8.93;;;3.30;;
78686;SDS011;68002;52.310;6.990;2023-06-01T02:55:02;10.57;;;4.57;;
78686;SDS011;68002;52.310;6.990;2023-06-01T02:57:27;11.88;;;4.13;;
78686;SDS011;68002;52.310;6.990;2023-06-01T02:59:52;8.17;;;3.73;;
78686;SDS011;68002;52.310;6.990;2023-06-01T03:02:17;7.73;;;3.37;;
78686;SDS011;68002;52.310;6.990;2023-06-01T03:04:42;9.07;;;3.30;;
78686;SDS011;68002;52.310;6.990;2023-06-01T03:07:08;11.20;;;4.00;;
78686;SDS011;68002;52.310;6.990;2023-06-01T03:09:33;15.13;;;3.97;;
78686;SDS011;68002;52.310;6.990;2023-06-01T03:11:58;8.80;;;3.57;;
78686;SDS011;68002;52.310;6.990;2023-06-01T03:14:23;10.40;;;3.50;;
78686;SDS011;68002;52.310;6.990;2023-06-01T03:16:48;12.60;;;4.00;;
78686;SDS011;68002;52.310;6.990;2023-06-01T03:19:14;8.13;;;3.13;;
78686;SDS011;68002;52.310;6.990;2023-06-01T03:21:39;10.60;;;3.20;;
78686;SDS011;68002;52.310;6.990;2023-06-01T03:24:04;12.73;;;3.53;;
78686;SDS011;68002;52.310;6.990;2023-06-01T03:26:30;9.35;;;4.57;;
78686;SDS011;68002;52.310;6.990;2023-06-01T03:28:55;16.50;;;4.20;;
78686;SDS011;68002;52.310;6.990;2023-06-01T03:31:20;5.00;;;2.70;;
78686;SDS011;68002;52.310;6.990;2023-06-01T03:33:46;7.70;;;3.05;;
78686;SDS011;68002;52.310;6.990;2023-06-01T03:36:11;9.63;;;4.00;;
78686;SDS011;68002;52.310;6.990;2023-06-01T03:38:36;10.53;;;3.93;;
78686;SDS011;68002;52.310;6.990;2023-06-01T03:41:01;11.00;;;3.97;;
78686;SDS011;68002;52.310;6.990;2023-06-01T03:43:26;8.57;;;2.83;;
78686;SDS011;68002;52.310;6.990;2023-06-01T03:45:52;9.60;;;3.60;;
78686;SDS011;68002;52.310;6.990;2023-06-01T03:48:17;9.87;;;3.53;;
78686;SDS011;68002;52.310;6.990;2023-06-01T03:50:42;9.67;;;3.87;;
78686;SDS011;68002;52.310;6.990;2023-06-01T03:53:07;9.57;;;3.83;;
78686;SDS011;68002;52.310;6.990;2023-06-01T03:55:33;11.27;;;4.28;;
78686;SDS011;68002;52.310;6.990;2023-06-01T03:57:58;12.13;;;4.30;;
78686;SDS011;68002;52.310;6.990;2023-06-01T04:00:23;8.90;;;3.73;;
78686;SDS011;68002;52.310;6.990;2023-06-01T04:05:26;10.80;;;3.75;;
78686;SDS011;68002;52.310;6.990;2023-06-01T04:07:52;9.82;;;4.63;;
78686;SDS011;68002;52.310;6.990;2023-06-01T04:10:19;16.00;;;3.70;;
78686;SDS011;68002;52.310;6.990;2023-06-01T04:12:45;10.82;;;3.80;;
78686;SDS011;68002;52.310;6.990;2023-06-01T04:15:12;11.98;;;4.00;;
78686;SDS011;68002;52.310;6.990;2023-06-01T04:17:39;9.60;;;3.35;;
78686;SDS011;68002;52.310;6.990;2023-06-01T04:20:05;8.70;;;3.50;;
78686;SDS011;68002;52.310;6.990;2023-06-01T04:22:33;10.27;;;4.10;;
78686;SDS011;68002;52.310;6.990;2023-06-01T04:24:59;7.40;;;3.33;;
78686;SDS011;68002;52.310;6.990;2023-06-01T04:27:24;8.57;;;4.03;;
78686;SDS011;68002;52.310;6.990;2023-06-01T04:29:49;6.93;;;3.10;;
78686;SDS011;68002;52.310;6.990;2023-06-01T04:32:15;8.70;;;3.10;;
78686;SDS011;68002;52.310;6.990;2023-06-01T04:34:40;9.33;;;3.73;;
78686;SDS011;68002;52.310;6.990;2023-06-01T04:37:05;13.67;;;3.77;;
78686;SDS011;68002;52.310;6.990;2023-06-01T04:39:30;7.50;;;3.20;;
78686;SDS011;68002;52.310;6.990;2023-06-01T04:41:55;7.33;;;3.37;;
78686;SDS011;68002;52.310;6.990;2023-06-01T04:44:21;8.97;;;3.27;;
78686;SDS011;68002;52.310;6.990;2023-06-01T04:46:46;11.80;;;4.00;;
78686;SDS011;68002;52.310;6.990;2023-06-01T04:49:11;13.27;;;4.77;;
78686;SDS011;68002;52.310;6.990;2023-06-01T04:51:36;9.10;;;4.00;;
78686;SDS011;68002;52.310;6.990;2023-06-01T04:54:01;8.97;;;3.73;;
78686;SDS011;68002;52.310;6.990;2023-06-01T04:56:27;9.20;;;3.90;;
78686;SDS011;68002;52.310;6.990;2023-06-01T04:58:52;10.37;;;4.20;;
78686;SDS011;68002;52.310;6.990;2023-06-01T05:01:19;6.90;;;3.33;;
78686;SDS011;68002;52.310;6.990;2023-06-01T05:03:46;9.73;;;4.00;;
78686;SDS011;68002;52.310;6.990;2023-06-01T05:06:12;7.03;;;3.33;;
78686;SDS011;68002;52.310;6.990;2023-06-01T05:08:38;9.80;;;3.20;;
78686;SDS011;68002;52.310;6.990;2023-06-01T05:11:04;10.23;;;4.00;;
78686;SDS011;68002;52.310;6.990;2023-06-01T05:13:29;11.75;;;4.70;;
78686;SDS011;68002;52.310;6.990;2023-06-01T05:15:55;6.03;;;3.30;;
78686;SDS011;68002;52.310;6.990;2023-06-01T05:18:20;11.50;;;4.07;;
78686;SDS011;68002;52.310;6.990;2023-06-01T05:20:45;7.73;;;3.30;;
78686;SDS011;68002;52.310;6.990;2023-06-01T05:23:10;9.43;;;4.13;;
78686;SDS011;68002;52.310;6.990;2023-06-01T05:25:35;10.43;;;4.27;;
78686;SDS011;68002;52.310;6.990;2023-06-01T05:28:01;8.53;;;3.53;;
78686;SDS011;68002;52.310;6.990;2023-06-01T05:30:26;11.47;;;3.67;;
78686;SDS011;68002;52.310;6.990;2023-06-01T05:32:51;8.20;;;3.67;;
78686;SDS011;68002;52.310;6.990;2023-06-01T05:35:16;9.67;;;3.23;;
78686;SDS011;68002;52.310;6.990;2023-06-01T05:37:41;7.53;;;3.20;;
78686;SDS011;68002;52.310;6.990;2023-06-01T05:40:07;8.70;;;4.13;;
78686;SDS011;68002;52.310;6.990;2023-06-01T05:42:32;7.78;;;3.38;;
78686;SDS011;68002;52.310;6.990;2023-06-01T05:44:58;8.17;;;3.50;;
78686;SDS011;68002;52.310;6.990;2023-06-01T05:47:23;10.83;;;3.70;;
78686;SDS011;68002;52.310;6.990;2023-06-01T05:49:48;11.93;;;4.33;;
78686;SDS011;68002;52.310;6.990;2023-06-01T05:52:13;9.80;;;3.83;;
78686;SDS011;68002;52.310;6.990;2023-06-01T05:54:39;8.80;;;4.10;;
78686;SDS011;68002;52.310;6.990;2023-06-01T05:57:04;11.47;;;4.40;;
78686;SDS011;68002;52.310;6.990;2023-06-01T05:59:29;9.73;;;4.30;;
78686;SDS011;68002;52.310;6.990;2023-06-01T06:01:55;10.00;;;4.77;;
78686;SDS011;68002;52.310;6.990;2023-06-01T06:04:20;12.30;;;5.43;;
78686;SDS011;68002;52.310;6.990;2023-06-01T06:06:45;8.30;;;3.37;;
78686;SDS011;68002;52.310;6.990;2023-06-01T06:09:10;7.50;;;3.07;;
78686;SDS011;68002;52.310;6.990;2023-06-01T06:11:35;10.57;;;3.60;;
78686;SDS011;68002;52.310;6.990;2023-06-01T06:14:01;8.60;;;3.83;;
78686;SDS011;68002;52.310;6.990;2023-06-01T06:16:26;7.13;;;3.40;;
78686;SDS011;68002;52.310;6.990;2023-06-01T06:18:51;7.30;;;3.93;;
78686;SDS011;68002;52.310;6.990;2023-06-01T06:21:16;9.47;;;4.00;;
78686;SDS011;68002;52.310;6.990;2023-06-01T06:23:42;7.43;;;2.83;;
78686;SDS011;68002;52.310;6.990;2023-06-01T06:26:07;7.77;;;3.90;;
78686;SDS011;68002;52.310;6.990;2023-06-01T06:28:32;8.53;;;3.93;;
78686;SDS011;68002;52.310;6.990;2023-06-01T06:30:58;8.57;;;4.00;;
78686;SDS011;68002;52.310;6.990;2023-06-01T06:33:23;9.65;;;4.18;;
78686;SDS011;68002;52.310;6.990;2023-06-01T06:35:48;8.43;;;3.17;;
78686;SDS011;68002;52.310;6.990;2023-06-01T06:38:14;10.50;;;4.20;;
78686;SDS011;68002;52.310;6.990;2023-06-01T06:40:39;8.97;;;3.83;;
78686;SDS011;68002;52.310;6.990;2023-06-01T06:43:04;12.10;;;4.30;;
78686;SDS011;68002;52.310;6.990;2023-06-01T06:45:29;8.17;;;3.47;;
78686;SDS011;68002;52.310;6.990;2023-06-01T06:47:55;10.67;;;3.97;;
78686;SDS011;68002;52.310;6.990;2023-06-01T06:50:20;9.23;;;4.10;;
78686;SDS011;68002;52.310;6.990;2023-06-01T06:52:45;4.50;;;2.43;;
78686;SDS011;68002;52.310;6.990;2023-06-01T06:55:10;9.17;;;3.97;;
78686;SDS011;68002;52.310;6.990;2023-06-01T06:57:35;8.30;;;3.37;;
78686;SDS011;68002;52.310;6.990;2023-06-01T07:00:01;6.30;;;3.20;;
78686;SDS011;68002;52.310;6.990;2023-06-01T07:02:26;8.18;;;3.50;;
78686;SDS011;68002;52.310;6.990;2023-06-01T07:04:51;7.90;;;3.80;;
78686;SDS011;68002;52.310;6.990;2023-06-01T07:07:17;7.40;;;3.77;;
78686;SDS011;68002;52.310;6.990;2023-06-01T07:09:42;10.38;;;4.10;;
78686;SDS011;68002;52.310;6.990;2023-06-01T07:12:07;10.03;;;3.80;;
78686;SDS011;68002;52.310;6.990;2023-06-01T07:14:33;10.73;;;4.10;;
78686;SDS011;68002;52.310;6.990;2023-06-01T07:16:58;7.70;;;3.88;;
78686;SDS011;68002;52.310;6.990;2023-06-01T07:19:25;8.57;;;3.30;;
78686;SDS011;68002;52.310;6.990;2023-06-01T07:21:50;10.63;;;3.67;;
78686;SDS011;68002;52.310;6.990;2023-06-01T07:24:18;9.90;;;4.10;;
78686;SDS011;68002;52.310;6.990;2023-06-01T07:26:43;11.80;;;5.05;;
78686;SDS011;68002;52.310;6.990;2023-06-01T07:29:09;8.30;;;4.33;;
78686;SDS011;68002;52.310;6.990;2023-06-01T07:31:34;11.63;;;4.93;;
78686;SDS011;68002;52.310;6.990;2023-06-01T07:33:59;7.97;;;3.83;;
78686;SDS011;68002;52.310;6.990;2023-06-01T07:36:24;8.00;;;3.80;;
78686;SDS011;68002;52.310;6.990;2023-06-01T07:38:50;8.57;;;4.43;;
78686;SDS011;68002;52.310;6.990;2023-06-01T07:41:15;7.17;;;3.30;;
78686;SDS011;68002;52.310;6.990;2023-06-01T07:43:40;10.27;;;4.20;;
78686;SDS011;68002;52.310;6.990;2023-06-01T07:46:05;12.03;;;3.87;;
78686;SDS011;68002;52.310;6.990;2023-06-01T07:48:31;6.90;;;3.20;;
78686;SDS011;68002;52.310;6.990;2023-06-01T07:50:56;7.13;;;3.60;;
78686;SDS011;68002;52.310;6.990;2023-06-01T07:53:21;7.47;;;3.63;;
78686;SDS011;68002;52.310;6.990;2023-06-01T07:55:46;9.90;;;4.00;;
78686;SDS011;68002;52.310;6.990;2023-06-01T07:58:12;8.20;;;4.40;;
78686;SDS011;68002;52.310;6.990;2023-06-01T08:00:37;6.30;;;3.13;;
78686;SDS011;68002;52.310;6.990;2023-06-01T08:03:02;8.27;;;4.67;;
78686;SDS011;68002;52.310;6.990;2023-06-01T08:05:27;8.80;;;3.73;;
78686;SDS011;68002;52.310;6.990;2023-06-01T08:07:52;8.67;;;3.57;;
78686;SDS011;68002;52.310;6.990;2023-06-01T08:10:18;8.30;;;3.63;;
78686;SDS011;68002;52.310;6.990;2023-06-01T08:12:43;7.03;;;2.40;;
78686;SDS011;68002;52.310;6.990;2023-06-01T08:15:08;8.47;;;2.97;;
78686;SDS011;68002;52.310;6.990;2023-06-01T08:17:34;8.23;;;3.58;;
78686;SDS011;68002;52.310;6.990;2023-06-01T08:19:59;5.23;;;2.90;;
78686;SDS011;68002;52.310;6.990;2023-06-01T08:22:24;6.43;;;2.70;;
78686;SDS011;68002;52.310;6.990;2023-06-01T08:24:50;8.50;;;3.87;;
78686;SDS011;68002;52.310;6.990;2023-06-01T08:27:16;7.80;;;3.75;;
78686;SDS011;68002;52.310;6.990;2023-06-01T08:29:42;9.07;;;3.70;;
78686;SDS011;68002;52.310;6.990;2023-06-01T08:32:08;7.80;;;3.40;;
78686;SDS011;68002;52.310;6.990;2023-06-01T08:34:34;6.90;;;3.33;;
78686;SDS011;68002;52.310;6.990;2023-06-01T08:36:59;7.83;;;4.20;;
78686;SDS011;68002;52.310;6.990;2023-06-01T08:39:24;10.17;;;3.90;;
78686;SDS011;68002;52.310;6.990;2023-06-01T08:41:56;6.80;;;3.95;;
78686;SDS011;68002;52.310;6.990;2023-06-01T08:44:22;11.05;;;4.57;;
78686;SDS011;68002;52.310;6.990;2023-06-01T08:46:50;13.10;;;4.53;;
78686;SDS011;68002;52.310;6.990;2023-06-01T08:49:15;10.07;;;5.88;;
78686;SDS011;68002;52.310;6.990;2023-06-01T08:51:41;8.57;;;4.38;;
78686;SDS011;68002;52.310;6.990;2023-06-01T08:54:09;8.40;;;3.90;;
78686;SDS011;68002;52.310;6.990;2023-06-01T08:56:34;9.20;;;4.18;;
78686;SDS011;68002;52.310;6.990;2023-06-01T08:59:00;10.93;;;4.95;;
78686;SDS011;68002;52.310;6.990;2023-06-01T09:01:26;10.60;;;4.78;;
78686;SDS011;68002;52.310;6.990;2023-06-01T09:03:52;11.25;;;4.55;;
78686;SDS011;68002;52.310;6.990;2023-06-01T09:06:17;7.83;;;3.57;;
78686;SDS011;68002;52.310;6.990;2023-06-01T09:08:44;8.18;;;4.13;;
78686;SDS011;68002;52.310;6.990;2023-06-01T09:11:09;6.93;;;3.88;;
78686;SDS011;68002;52.310;6.990;2023-06-01T09:13:35;8.73;;;4.07;;
78686;SDS011;68002;52.310;6.990;2023-06-01T09:16:02;6.50;;;3.10;;
78686;SDS011;68002;52.310;6.990;2023-06-01T09:18:28;6.38;;;3.17;;
78686;SDS011;68002;52.310;6.990;2023-06-01T09:20:53;5.97;;;3.38;;
78686;SDS011;68002;52.310;6.990;2023-06-01T09:23:25;6.78;;;2.95;;
78686;SDS011;68002;52.310;6.990;2023-06-01T09:28:57;4.15;;;2.78;;
78686;SDS011;68002;52.310;6.990;2023-06-01T09:34:05;5.78;;;2.63;;
78686;SDS011;68002;52.310;6.990;2023-06-01T09:36:30;4.83;;;2.10;;
78686;SDS011;68002;52.310;6.990;2023-06-01T09:44:29;3.92;;;1.92;;
78686;SDS011;68002;52.310;6.990;2023-06-01T09:46:56;3.28;;;1.63;;
78686;SDS011;68002;52.310;6.990;2023-06-01T09:49:26;5.20;;;2.45;;
78686;SDS011;68002;52.310;6.990;2023-06-01T09:54:34;3.50;;;1.77;;
78686;SDS011;68002;52.310;6.990;2023-06-01T09:59:47;5.00;;;2.03;;
78686;SDS011;68002;52.310;6.990;2023-06-01T10:02:22;4.23;;;2.57;;
78686;SDS011;68002;52.310;6.990;2023-06-01T10:04:49;6.50;;;3.03;;
78686;SDS011;68002;52.310;6.990;2023-06-01T10:07:16;4.80;;;2.00;;
78686;SDS011;68002;52.310;6.990;2023-06-01T10:09:43;5.28;;;2.67;;
78686;SDS011;68002;52.310;6.990;2023-06-01T10:12:11;4.70;;;2.60;;
78686;SDS011;68002;52.310;6.990;2023-06-01T10:14:37;3.88;;;2.35;;
78686;SDS011;68002;52.310;6.990;2023-06-01T10:17:03;5.35;;;2.42;;
78686;SDS011;68002;52.310;6.990;2023-06-01T10:19:28;3.75;;;2.00;;
78686;SDS011;68002;52.310;6.990;2023-06-01T10:21:54;4.50;;;2.42;;
78686;SDS011;68002;52.310;6.990;2023-06-01T10:24:21;3.17;;;1.75;;
78686;SDS011;68002;52.310;6.990;2023-06-01T10:29:42;4.38;;;2.45;;
78686;SDS011;68002;52.310;6.990;2023-06-01T10:32:40;5.28;;;2.42;;
78686;SDS011;68002;52.310;6.990;2023-06-01T10:35:02;3.58;;;2.05;;
78686;SDS011;68002;52.310;6.990;2023-06-01T10:42:42;6.22;;;3.22;;
78686;SDS011;68002;52.310;6.990;2023-06-01T10:45:35;6.20;;;3.08;;
78686;SDS011;68002;52.310;6.990;2023-06-01T10:47:59;6.93;;;2.90;;
78686;SDS011;68002;52.310;6.990;2023-06-01T10:50:26;4.65;;;2.78;;
78686;SDS011;68002;52.310;6.990;2023-06-01T10:52:52;3.97;;;1.90;;
78686;SDS011;68002;52.310;6.990;2023-06-01T10:55:19;4.10;;;2.75;;
78686;SDS011;68002;52.310;6.990;2023-06-01T10:57:46;4.63;;;2.60;;
78686;SDS011;68002;52.310;6.990;2023-06-01T11:02:44;8.00;;;2.85;;
78686;SDS011;68002;52.310;6.990;2023-06-01T11:13:22;4.18;;;2.03;;
78686;SDS011;68002;52.310;6.990;2023-06-01T11:21:07;4.03;;;2.25;;
78686;SDS011;68002;52.310;6.990;2023-06-01T11:23:51;5.13;;;2.85;;
78686;SDS011;68002;52.310;6.990;2023-06-01T11:26:19;6.95;;;2.70;;
78686;SDS011;68002;52.310;6.990;2023-06-01T11:28:45;3.63;;;2.47;;
78686;SDS011;68002;52.310;6.990;2023-06-01T11:31:13;4.15;;;1.98;;
78686;SDS011;68002;52.310;6.990;2023-06-01T11:33:45;4.68;;;2.03;;
78686;SDS011;68002;52.310;6.990;2023-06-01T11:36:14;5.28;;;2.83;;
78686;SDS011;68002;52.310;6.990;2023-06-01T11:38:41;5.00;;;2.85;;
78686;SDS011;68002;52.310;6.990;2023-06-01T11:41:07;7.57;;;3.42;;
78686;SDS011;68002;52.310;6.990;2023-06-01T11:43:33;4.22;;;2.58;;
78686;SDS011;68002;52.310;6.990;2023-06-01T11:46:00;6.55;;;3.58;;
78686;SDS011;68002;52.310;6.990;2023-06-01T11:48:32;5.65;;;3.42;;
78686;SDS011;68002;52.310;6.990;2023-06-01T11:50:58;6.93;;;3.17;;
78686;SDS011;68002;52.310;6.990;2023-06-01T11:53:23;6.97;;;2.77;;
78686;SDS011;68002;52.310;6.990;2023-06-01T11:55:52;5.30;;;2.60;;
78686;SDS011;68002;52.310;6.990;2023-06-01T11:58:20;5.75;;;2.88;;
78686;SDS011;68002;52.310;6.990;2023-06-01T12:00:49;6.03;;;3.40;;
78686;SDS011;68002;52.310;6.990;2023-06-01T12:03:14;5.33;;;3.13;;
78686;SDS011;68002;52.310;6.990;2023-06-01T12:05:40;5.60;;;2.97;;
78686;SDS011;68002;52.310;6.990;2023-06-01T12:08:05;6.72;;;2.78;;
78686;SDS011;68002;52.310;6.990;2023-06-01T12:10:31;5.43;;;2.70;;
78686;SDS011;68002;52.310;6.990;2023-06-01T12:12:57;5.97;;;3.28;;
78686;SDS011;68002;52.310;6.990;2023-06-01T12:15:23;5.07;;;2.60;;
78686;SDS011;68002;52.310;6.990;2023-06-01T12:17:49;6.18;;;3.35;;
78686;SDS011;68002;52.310;6.990;2023-06-01T12:20:26;5.55;;;2.88;;
78686;SDS011;68002;52.310;6.990;2023-06-01T12:22:54;5.30;;;2.05;;
78686;SDS011;68002;52.310;6.990;2023-06-01T12:25:19;5.47;;;2.60;;
78686;SDS011;68002;52.310;6.990;2023-06-01T12:27:58;4.23;;;2.70;;
78686;SDS011;68002;52.310;6.990;2023-06-01T12:30:24;5.38;;;2.53;;
78686;SDS011;68002;52.310;6.990;2023-06-01T12:32:49;5.88;;;2.45;;
78686;SDS011;68002;52.310;6.990;2023-06-01T12:35:15;4.40;;;2.27;;
78686;SDS011;68002;52.310;6.990;2023-06-01T12:37:40;5.63;;;2.47;;
78686;SDS011;68002;52.310;6.990;2023-06-01T12:40:05;3.70;;;2.17;;
78686;SDS011;68002;52.310;6.990;2023-06-01T12:42:34;5.93;;;2.65;;
78686;SDS011;68002;52.310;6.990;2023-06-01T12:45:00;4.15;;;2.30;;
78686;SDS011;68002;52.310;6.990;2023-06-01T12:47:26;3.70;;;2.50;;
78686;SDS011;68002;52.310;6.990;2023-06-01T12:50:07;4.40;;;2.47;;
78686;SDS011;68002;52.310;6.990;2023-06-01T12:52:34;3.78;;;2.22;;
78686;SDS011;68002;52.310;6.990;2023-06-01T12:54:59;3.60;;;1.67;;
78686;SDS011;68002;52.310;6.990;2023-06-01T12:57:24;3.67;;;2.10;;
78686;SDS011;68002;52.310;6.990;2023-06-01T12:59:50;3.80;;;2.10;;
78686;SDS011;68002;52.310;6.990;2023-06-01T13:02:15;4.17;;;2.00;;
78686;SDS011;68002;52.310;6.990;2023-06-01T13:04:40;3.07;;;2.33;;
78686;SDS011;68002;52.310;6.990;2023-06-01T13:07:05;3.57;;;2.17;;
78686;SDS011;68002;52.310;6.990;2023-06-01T13:09:30;7.17;;;2.20;;
78686;SDS011;68002;52.310;6.990;2023-06-01T13:11:56;4.50;;;2.57;;
78686;SDS011;68002;52.310;6.990;2023-06-01T13:14:21;3.47;;;1.97;;
78686;SDS011;68002;52.310;6.990;2023-06-01T13:16:46;4.37;;;2.80;;
78686;SDS011;68002;52.310;6.990;2023-06-01T13:19:11;4.30;;;2.83;;
78686;SDS011;68002;52.310;6.990;2023-06-01T13:21:36;3.90;;;2.37;;
78686;SDS011;68002;52.310;6.990;2023-06-01T13:24:02;4.00;;;2.37;;
78686;SDS011;68002;52.310;6.990;2023-06-01T13:26:27;5.73;;;2.50;;
78686;SDS011;68002;52.310;6.990;2023-06-01T13:28:52;4.70;;;2.37;;
78686;SDS011;68002;52.310;6.990;2023-06-01T13:31:17;4.97;;;2.53;;
78686;SDS011;68002;52.310;6.990;2023-06-01T13:33:43;6.47;;;3.10;;
78686;SDS011;68002;52.310;6.990;2023-06-01T13:36:08;6.13;;;3.47;;
78686;SDS011;68002;52.310;6.990;2023-06-01T13:38:33;6.90;;;2.90;;
78686;SDS011;68002;52.310;6.990;2023-06-01T13:40:58;5.30;;;3.13;;
78686;SDS011;68002;52.310;6.990;2023-06-01T13:43:24;7.73;;;3.10;;
78686;SDS011;68002;52.310;6.990;2023-06-01T13:45:49;5.57;;;2.90;;
78686;SDS011;68002;52.310;6.990;2023-06-01T13:48:14;4.87;;;2.70;;
78686;SDS011;68002;52.310;6.990;2023-06-01T13:50:39;4.87;;;2.90;;
78686;SDS011;68002;52.310;6.990;2023-06-01T13:53:05;5.23;;;2.77;;
78686;SDS011;68002;52.310;6.990;2023-06-01T13:55:30;4.97;;;2.67;;
78686;SDS011;68002;52.310;6.990;2023-06-01T13:57:55;5.10;;;3.07;;
78686;SDS011;68002;52.310;6.990;2023-06-01T14:00:20;5.47;;;2.80;;
78686;SDS011;68002;52.310;6.990;2023-06-01T14:02:45;5.43;;;2.37;;
78686;SDS011;68002;52.310;6.990;2023-06-01T14:05:11;5.23;;;2.53;;
78686;SDS011;68002;52.310;6.990;2023-06-01T14:07:36;8.60;;;2.73;;
78686;SDS011;68002;52.310;6.990;2023-06-01T14:10:01;3.70;;;2.20;;
78686;SDS011;68002;52.310;6.990;2023-06-01T14:12:27;4.15;;;2.42;;
78686;SDS011;68002;52.310;6.990;2023-06-01T14:14:52;5.67;;;2.53;;
78686;SDS011;68002;52.310;6.990;2023-06-01T14:17:17;6.93;;;2.70;;
78686;SDS011;68002;52.310;6.990;2023-06-01T14:19:42;7.07;;;3.47;;
78686;SDS011;68002;52.310;6.990;2023-06-01T14:22:08;6.40;;;3.40;;
78686;SDS011;68002;52.310;6.990;2023-06-01T14:24:33;4.97;;;2.37;;
78686;SDS011;68002;52.310;6.990;2023-06-01T14:26:58;7.03;;;2.90;;
78686;SDS011;68002;52.310;6.990;2023-06-01T14:29:23;6.47;;;2.83;;
78686;SDS011;68002;52.310;6.990;2023-06-01T14:31:48;5.07;;;2.83;;
78686;SDS011;68002;52.310;6.990;2023-06-01T14:34:14;8.00;;;2.63;;
78686;SDS011;68002;52.310;6.990;2023-06-01T14:36:40;8.20;;;2.83;;
78686;SDS011;68002;52.310;6.990;2023-06-01T14:39:05;8.30;;;2.35;;
78686;SDS011;68002;52.310;6.990;2023-06-01T14:41:31;4.90;;;2.63;;
78686;SDS011;68002;52.310;6.990;2023-06-01T14:43:56;6.87;;;2.60;;
78686;SDS011;68002;52.310;6.990;2023-06-01T14:46:21;8.57;;;3.00;;
78686;SDS011;68002;52.310;6.990;2023-06-01T14:48:47;5.47;;;2.47;;
78686;SDS011;68002;52.310;6.990;2023-06-01T14:51:12;6.30;;;2.88;;
78686;SDS011;68002;52.310;6.990;2023-06-01T14:53:37;6.60;;;2.93;;
78686;SDS011;68002;52.310;6.990;2023-06-01T14:56:02;9.23;;;3.17;;
78686;SDS011;68002;52.310;6.990;2023-06-01T14:58:28;4.37;;;2.60;;
78686;SDS011;68002;52.310;6.990;2023-06-01T15:00:53;7.03;;;2.57;;
78686;SDS011;68002;52.310;6.990;2023-06-01T15:03:18;4.70;;;2.77;;
78686;SDS011;68002;52.310;6.990;2023-06-01T15:05:43;5.77;;;2.50;;
78686;SDS011;68002;52.310;6.990;2023-06-01T15:08:08;8.40;;;3.47;;
78686;SDS011;68002;52.310;6.990;2023-06-01T15:10:34;4.03;;;2.17;;
78686;SDS011;68002;52.310;6.990;2023-06-01T15:12:59;4.93;;;2.67;;
78686;SDS011;68002;52.310;6.990;2023-06-01T15:15:24;5.57;;;2.70;;
78686;SDS011;68002;52.310;6.990;2023-06-01T15:17:49;7.03;;;2.53;;
78686;SDS011;68002;52.310;6.990;2023-06-01T15:20:14;7.13;;;2.93;;
78686;SDS011;68002;52.310;6.990;2023-06-01T15:22:40;6.43;;;2.60;;
78686;SDS011;68002;52.310;6.990;2023-06-01T15:25:05;6.30;;;2.63;;
78686;SDS011;68002;52.310;6.990;2023-06-01T15:27:31;5.85;;;2.42;;
78686;SDS011;68002;52.310;6.990;2023-06-01T15:29:56;4.33;;;2.23;;
78686;SDS011;68002;52.310;6.990;2023-06-01T15:32:21;6.13;;;2.30;;
78686;SDS011;68002;52.310;6.990;2023-06-01T15:34:47;7.80;;;2.63;;